Archival Weather

Snohomish County (Paine Fld)

Everett, Washington (KPAE)

Report from: Monday, November 20, 2023 8:53 AM PST
Current time: Sunday, February 25, 2024 1:07 PM PST

Current weather – Weather history – Daily summaries
Weather forecast

Temperature3.9°C (39.0°F)
Wind chill2.6°C (36.7°F)
Dew point0.6°C (33.1°F)
Winds 3 kts (1.5 m/s, 3.5 mph) East-Southeast (110°)
Visibility10 mi. (16.1 km)
Clouds Sky clear
Altimeter30.52 in.Hg (1034 mB)
Relative humidity79 %
Density altitude-1,944 ft. (-592 m)
Sea-level pressure103.4 kPa (1034 mB, 30.53 in.Hg)
Remarks Automated weather observing station with precipitation discriminator
Flight conditions Visual Meteorological Conditions
Raw dataKPAE 201653Z 11003KT 10SM CLR 04/01 A3052 RMK AO2 SLP338 T00390006
An error has occurred. This application may no longer respond until reloaded. Reload 🗙